createdAt,value
2018-02-02T00:00:13.008Z,2.45
2018-02-02T00:02:40.770Z,2.80
2018-02-02T00:05:08.330Z,2.17
2018-02-02T00:07:35.839Z,2.53
2018-02-02T00:10:03.377Z,2.75
2018-02-02T00:12:30.906Z,2.58
2018-02-02T00:14:58.708Z,2.72
2018-02-02T00:17:26.227Z,2.67
2018-02-02T00:19:53.790Z,2.75
2018-02-02T00:22:21.342Z,3.12
2018-02-02T00:24:48.853Z,2.65
2018-02-02T00:27:16.773Z,3.08
2018-02-02T00:29:44.333Z,2.85
2018-02-02T00:32:11.846Z,3.17
2018-02-02T00:34:39.389Z,3.17
2018-02-02T00:37:07.420Z,2.53
2018-02-02T00:39:35.387Z,2.40
2018-02-02T00:42:02.195Z,3.15
2018-02-02T00:44:29.002Z,2.55
2018-02-02T00:46:56.548Z,2.80
2018-02-02T00:49:27.446Z,2.75
2018-02-02T00:52:01.054Z,3.47
2018-02-02T00:54:28.564Z,2.90
2018-02-02T00:56:56.088Z,2.90
2018-02-02T00:59:23.848Z,2.25
2018-02-02T01:01:51.374Z,3.50
2018-02-02T01:04:19.360Z,2.70
2018-02-02T01:06:46.936Z,2.58
2018-02-02T01:09:14.448Z,1.95
2018-02-02T01:11:41.960Z,2.85
2018-02-02T01:14:09.510Z,2.72
2018-02-02T01:16:37.024Z,2.35
2018-02-02T01:19:04.632Z,3.00
2018-02-02T01:21:32.598Z,3.17
2018-02-02T01:24:00.158Z,2.40
2018-02-02T01:26:27.707Z,2.78
2018-02-02T01:28:55.275Z,2.95
2018-02-02T01:31:22.782Z,2.50
2018-02-02T01:33:50.315Z,3.30
2018-02-02T01:36:17.854Z,2.70
2018-02-02T01:38:45.379Z,3.20
2018-02-02T01:41:12.889Z,2.95
2018-02-02T01:43:40.429Z,2.05
2018-02-02T01:46:07.937Z,2.42
2018-02-02T01:48:35.452Z,3.10
2018-02-02T01:51:03.028Z,2.53
2018-02-02T01:53:30.564Z,2.60
2018-02-02T01:55:58.072Z,3.03
2018-02-02T01:58:25.604Z,2.95
2018-02-02T02:00:53.121Z,3.37
2018-02-02T02:03:20.633Z,2.50
2018-02-02T02:05:48.244Z,2.83
2018-02-02T02:08:15.754Z,3.20
2018-02-02T02:10:43.286Z,3.15
2018-02-02T02:13:10.829Z,3.45
2018-02-02T02:15:38.388Z,2.70
2018-02-02T02:18:05.900Z,2.78
2018-02-02T02:20:33.441Z,2.65
2018-02-02T02:23:00.953Z,2.95
2018-02-02T02:25:28.473Z,2.72
2018-02-02T02:27:56.009Z,3.20
2018-02-02T02:30:23.530Z,2.55
2018-02-02T02:32:51.037Z,3.33
2018-02-02T02:35:18.572Z,2.65
2018-02-02T02:37:46.081Z,2.30
2018-02-02T02:40:13.593Z,2.60
2018-02-02T02:42:41.147Z,2.20
2018-02-02T02:45:08.690Z,2.40
2018-02-02T02:47:36.251Z,2.10
2018-02-02T02:50:03.810Z,2.30
2018-02-02T02:52:31.325Z,2.70
2018-02-02T02:54:58.841Z,2.90
2018-02-02T02:57:26.372Z,1.90
2018-02-02T02:59:53.882Z,2.40
2018-02-02T03:02:21.482Z,2.42
2018-02-02T03:04:49.060Z,2.80
2018-02-02T03:07:16.565Z,2.80
2018-02-02T03:09:44.076Z,2.50
2018-02-02T03:12:11.621Z,2.62
2018-02-02T03:14:39.138Z,2.58
2018-02-02T03:17:07.142Z,2.05
2018-02-02T03:19:34.672Z,2.55
2018-02-02T03:22:02.281Z,2.30
2018-02-02T03:24:29.840Z,2.85
2018-02-02T03:26:57.399Z,2.75
2018-02-02T03:29:24.909Z,2.50
2018-02-02T03:31:52.441Z,2.40
2018-02-02T03:34:19.980Z,2.37
2018-02-02T03:36:47.535Z,2.08
2018-02-02T03:39:15.093Z,2.50
2018-02-02T03:41:42.600Z,2.20
2018-02-02T03:44:10.141Z,2.15
2018-02-02T03:46:37.681Z,1.80
2018-02-02T03:49:05.220Z,3.10
2018-02-02T03:51:32.760Z,2.62
2018-02-02T03:54:00.264Z,2.42
2018-02-02T03:56:27.804Z,2.05
2018-02-02T03:58:55.505Z,2.62
2018-02-02T04:01:23.009Z,1.98
2018-02-02T04:03:50.540Z,2.30
2018-02-02T04:06:18.049Z,2.65
2018-02-02T04:08:45.597Z,1.80
2018-02-02T04:11:13.157Z,2.30
2018-02-02T04:13:40.716Z,1.92
2018-02-02T04:16:08.253Z,2.40
2018-02-02T04:18:35.766Z,2.28
2018-02-02T04:21:03.685Z,2.85
2018-02-02T04:23:31.198Z,2.90
2018-02-02T04:25:58.704Z,2.08
2018-02-02T04:28:26.276Z,2.40
2018-02-02T04:30:53.796Z,3.00
2018-02-02T04:33:21.601Z,2.22
2018-02-02T04:35:49.160Z,2.58
2018-02-02T04:38:16.719Z,2.05
2018-02-02T04:40:44.252Z,1.90
2018-02-02T04:43:15.762Z,2.67
2018-02-02T04:45:43.503Z,2.50
2018-02-02T04:48:11.049Z,1.77
2018-02-02T04:50:38.566Z,2.08
2018-02-02T04:53:06.101Z,2.50
2018-02-02T04:55:33.637Z,2.00
2018-02-02T04:58:01.196Z,2.10
2018-02-02T05:00:28.728Z,2.00
2018-02-02T05:02:56.245Z,2.42
2018-02-02T05:05:23.784Z,2.87
2018-02-02T05:07:51.309Z,2.05
2018-02-02T05:10:18.844Z,1.95
2018-02-02T05:12:46.382Z,2.25
2018-02-02T05:15:13.901Z,2.45
2018-02-02T05:17:41.445Z,1.73
2018-02-02T05:20:08.957Z,2.45
2018-02-02T05:22:36.488Z,2.95
2018-02-02T05:25:04.234Z,2.33
2018-02-02T05:27:31.735Z,2.00
2018-02-02T05:29:59.275Z,2.40
2018-02-02T05:32:26.785Z,2.17
2018-02-02T05:34:54.322Z,2.15
2018-02-02T05:37:22.029Z,3.05
2018-02-02T05:39:49.537Z,2.40
2018-02-02T05:42:17.076Z,2.75
2018-02-02T05:44:44.589Z,3.22
2018-02-02T05:47:12.140Z,2.70
2018-02-02T05:49:40.621Z,2.95
2018-02-02T05:52:08.137Z,3.55
2018-02-02T05:54:35.680Z,3.95
2018-02-02T05:57:03.253Z,3.12
2018-02-02T05:59:30.813Z,3.28
2018-02-02T06:01:58.333Z,2.90
2018-02-02T06:04:25.836Z,3.75
2018-02-02T06:06:53.384Z,3.10
2018-02-02T06:09:20.921Z,4.15
2018-02-02T06:11:48.462Z,3.08
2018-02-02T06:14:15.274Z,3.70
2018-02-02T06:16:42.783Z,4.00
2018-02-02T06:19:22.114Z,5.05
2018-02-02T06:21:49.624Z,4.60
2018-02-02T06:24:17.223Z,3.85
2018-02-02T06:26:44.729Z,3.80
2018-02-02T06:29:12.289Z,4.70
2018-02-02T06:31:39.831Z,3.80
2018-02-02T06:34:07.342Z,3.62
2018-02-02T06:36:35.224Z,3.92
2018-02-02T06:39:02.738Z,3.90
2018-02-02T06:41:30.268Z,3.37
2018-02-02T06:43:58.311Z,3.30
2018-02-02T06:46:26.284Z,3.47
2018-02-02T06:48:53.885Z,3.90
2018-02-02T06:51:21.413Z,3.65
2018-02-02T06:53:48.951Z,3.05
2018-02-02T06:56:16.516Z,2.92
2018-02-02T06:58:44.030Z,2.92
2018-02-02T07:01:11.581Z,3.20
2018-02-02T07:03:39.105Z,3.10
2018-02-02T07:06:06.664Z,2.40
2018-02-02T07:08:34.209Z,2.70
2018-02-02T07:11:01.751Z,2.72
2018-02-02T07:13:29.429Z,3.60
2018-02-02T07:15:56.933Z,3.10
2018-02-02T07:18:24.444Z,2.70
2018-02-02T07:20:51.981Z,3.78
2018-02-02T07:23:19.492Z,2.87
2018-02-02T07:25:47.039Z,2.45
2018-02-02T07:28:14.582Z,2.70
2018-02-02T07:30:42.141Z,3.15
2018-02-02T07:33:09.681Z,2.62
2018-02-02T07:35:37.188Z,2.80
2018-02-02T07:38:04.762Z,2.65
2018-02-02T07:40:32.292Z,2.95
2018-02-02T07:42:59.834Z,2.28
2018-02-02T07:45:27.387Z,3.70
2018-02-02T07:47:54.897Z,2.97
2018-02-02T07:50:22.462Z,4.00
2018-02-02T07:52:49.977Z,3.00
2018-02-02T07:55:17.492Z,2.80
2018-02-02T07:57:45.030Z,2.55
2018-02-02T08:00:12.575Z,3.30
2018-02-02T08:02:40.122Z,3.33
2018-02-02T08:05:07.661Z,3.35
2018-02-02T08:07:35.240Z,2.85
2018-02-02T08:10:02.786Z,3.12
2018-02-02T08:12:30.351Z,3.12
2018-02-02T08:14:58.005Z,2.85
2018-02-02T08:17:25.537Z,3.40
2018-02-02T08:19:53.044Z,3.25
2018-02-02T08:22:20.584Z,3.33
2018-02-02T08:24:48.088Z,3.33
2018-02-02T08:27:15.874Z,3.80
2018-02-02T08:29:43.384Z,7.30
2018-02-02T08:32:10.929Z,3.70
2018-02-02T08:34:38.479Z,2.42
2018-02-02T08:37:06.013Z,2.40
2018-02-02T08:39:33.760Z,2.90
2018-02-02T08:42:01.273Z,2.80
2018-02-02T08:44:28.811Z,3.33
2018-02-02T08:46:56.370Z,2.22
2018-02-02T08:49:23.936Z,2.67
2018-02-02T08:51:51.665Z,3.35
2018-02-02T08:54:19.188Z,2.45
2018-02-02T08:56:46.712Z,2.60
2018-02-02T08:59:14.268Z,2.83
2018-02-02T09:01:47.609Z,3.03
2018-02-02T09:04:15.140Z,2.72
2018-02-02T09:06:43.503Z,2.95
2018-02-02T09:09:11.045Z,3.15
2018-02-02T09:11:38.548Z,2.90
2018-02-02T09:14:06.060Z,2.50
2018-02-02T09:16:33.648Z,2.75
2018-02-02T09:19:01.211Z,2.70
2018-02-02T09:21:28.753Z,3.45
2018-02-02T09:23:56.268Z,2.85
2018-02-02T09:26:23.781Z,2.83
2018-02-02T09:28:51.327Z,3.60
2018-02-02T09:31:18.889Z,2.58
2018-02-02T09:33:46.448Z,3.33
2018-02-02T09:36:14.004Z,3.45
2018-02-02T09:38:41.517Z,2.83
2018-02-02T09:41:09.052Z,2.08
2018-02-02T09:43:36.599Z,2.80
2018-02-02T09:46:05.164Z,3.80
2018-02-02T09:48:32.669Z,2.53
2018-02-02T09:51:00.288Z,3.20
2018-02-02T09:53:27.830Z,2.95
2018-02-02T09:55:55.400Z,2.50
2018-02-02T09:58:22.958Z,2.70
2018-02-02T10:00:50.597Z,2.40
2018-02-02T10:03:18.109Z,2.58
2018-02-02T10:05:45.649Z,2.25
2018-02-02T10:08:13.165Z,2.90
2018-02-02T10:10:40.704Z,3.20
2018-02-02T10:13:08.212Z,2.80
2018-02-02T10:15:35.725Z,2.80
2018-02-02T10:18:03.330Z,2.35
2018-02-02T10:20:30.836Z,2.37
2018-02-02T10:22:58.559Z,2.78
2018-02-02T10:25:26.072Z,2.70
2018-02-02T10:27:53.588Z,2.47
2018-02-02T10:30:21.131Z,3.25
2018-02-02T10:32:48.679Z,1.50
2018-02-02T10:35:16.550Z,2.08
2018-02-02T10:37:44.072Z,2.22
2018-02-02T10:40:11.637Z,2.07
2018-02-02T10:42:39.184Z,1.67
2018-02-02T10:45:06.702Z,2.33
2018-02-02T10:47:34.265Z,2.90
2018-02-02T10:50:01.792Z,1.60
2018-02-02T10:52:29.311Z,2.83
2018-02-02T10:54:56.872Z,2.07
2018-02-02T10:57:24.413Z,2.03
2018-02-02T10:59:51.972Z,2.00
2018-02-02T11:02:25.640Z,2.65
2018-02-02T11:04:53.202Z,2.75
2018-02-02T11:07:20.788Z,1.58
2018-02-02T11:09:48.298Z,2.20
2018-02-02T11:12:15.876Z,1.80
2018-02-02T11:14:43.380Z,2.08
2018-02-02T11:17:10.909Z,3.00
2018-02-02T11:19:38.636Z,1.73
2018-02-02T11:22:07.137Z,1.90
2018-02-02T11:24:34.645Z,2.10
2018-02-02T11:27:02.342Z,1.95
2018-02-02T11:29:29.848Z,1.60
2018-02-02T11:31:57.375Z,2.40
2018-02-02T11:34:25.034Z,2.05
2018-02-02T11:36:52.544Z,2.37
2018-02-02T11:39:20.052Z,1.55
2018-02-02T11:41:47.783Z,2.28
2018-02-02T11:44:15.303Z,1.77
2018-02-02T11:46:42.825Z,1.45
2018-02-02T11:49:10.373Z,1.85
2018-02-02T11:51:37.881Z,1.90
2018-02-02T11:54:05.406Z,2.00
2018-02-02T11:56:32.977Z,1.60
2018-02-02T11:59:00.525Z,1.60
2018-02-02T12:01:28.053Z,2.15
2018-02-02T12:03:56.155Z,1.60
2018-02-02T12:06:23.666Z,1.40
2018-02-02T12:08:51.183Z,1.80
2018-02-02T12:11:19.213Z,1.33
2018-02-02T12:13:46.729Z,1.42
2018-02-02T12:16:14.242Z,2.85
2018-02-02T12:18:41.791Z,2.30
2018-02-02T12:21:09.301Z,2.03
2018-02-02T12:23:36.822Z,2.00
2018-02-02T12:26:09.921Z,2.42
2018-02-02T12:28:43.134Z,2.05
2018-02-02T12:31:10.888Z,1.50
2018-02-02T12:33:43.886Z,1.83
2018-02-02T12:36:12.140Z,2.90
2018-02-02T12:38:39.698Z,1.90
2018-02-02T12:41:07.258Z,1.60
2018-02-02T12:43:34.989Z,2.10
2018-02-02T12:46:02.506Z,1.60
2018-02-02T12:48:41.201Z,1.45
2018-02-02T12:51:21.541Z,1.50
2018-02-02T12:53:49.196Z,2.30
2018-02-02T12:56:16.702Z,2.00
2018-02-02T12:58:44.337Z,1.33
2018-02-02T13:01:11.877Z,2.35
2018-02-02T13:03:39.557Z,2.03
2018-02-02T13:06:07.219Z,2.30
2018-02-02T13:08:34.736Z,1.30
2018-02-02T13:11:02.249Z,2.00
2018-02-02T13:13:29.793Z,1.95
2018-02-02T13:15:58.275Z,3.05
2018-02-02T13:18:25.920Z,1.00
2018-02-02T13:20:53.894Z,2.08
2018-02-02T13:23:21.404Z,1.55
2018-02-02T13:25:48.948Z,1.45
2018-02-02T13:28:16.481Z,2.10
2018-02-02T13:30:44.141Z,1.65
2018-02-02T13:33:11.803Z,2.17
2018-02-02T13:35:39.308Z,1.52
2018-02-02T13:38:07.156Z,1.40
2018-02-02T13:40:35.096Z,1.90
2018-02-02T13:43:02.656Z,3.17
2018-02-02T13:45:30.265Z,1.90
2018-02-02T13:47:57.781Z,1.83
2018-02-02T13:50:25.324Z,1.60
2018-02-02T13:52:52.852Z,2.45
2018-02-02T13:55:20.388Z,2.10
2018-02-02T13:57:47.924Z,2.00
2018-02-02T14:00:15.433Z,2.55
2018-02-02T14:02:43.026Z,2.67
2018-02-02T14:05:10.585Z,2.03
2018-02-02T14:07:38.659Z,2.62
2018-02-02T14:10:06.245Z,1.55
2018-02-02T14:12:33.762Z,2.30
2018-02-02T14:15:01.333Z,2.53
2018-02-02T14:17:28.839Z,1.90
2018-02-02T14:19:56.668Z,2.47
2018-02-02T14:22:24.218Z,2.05
2018-02-02T14:24:51.778Z,2.60
2018-02-02T14:27:19.354Z,1.75
2018-02-02T14:29:46.893Z,1.48
2018-02-02T14:32:14.433Z,2.95
2018-02-02T14:34:41.953Z,2.70
2018-02-02T14:37:09.469Z,3.00
2018-02-02T14:39:37.232Z,2.70
2018-02-02T14:42:04.793Z,3.00
2018-02-02T14:44:32.452Z,3.30
2018-02-02T14:47:00.057Z,2.42
2018-02-02T14:49:27.570Z,2.80
2018-02-02T14:51:55.109Z,2.20
2018-02-02T14:54:22.636Z,2.65
2018-02-02T14:56:50.317Z,2.17
2018-02-02T14:59:17.825Z,1.87
2018-02-02T15:01:45.366Z,2.72
2018-02-02T15:04:12.949Z,2.25
2018-02-02T15:06:40.484Z,1.62
2018-02-02T15:09:08.037Z,2.40
2018-02-02T15:11:35.558Z,2.08
2018-02-02T15:14:03.140Z,2.75
2018-02-02T15:16:31.131Z,1.98
2018-02-02T15:18:58.716Z,2.00
2018-02-02T15:21:26.458Z,3.25
2018-02-02T15:23:54.295Z,2.00
2018-02-02T15:26:21.826Z,2.90
2018-02-02T15:28:49.356Z,2.35
2018-02-02T15:31:16.895Z,2.80
2018-02-02T15:33:44.882Z,2.35
2018-02-02T15:36:12.456Z,2.83
2018-02-02T15:38:40.015Z,2.90
2018-02-02T15:41:07.558Z,2.45
2018-02-02T15:43:35.201Z,2.62
2018-02-02T15:46:03.093Z,1.70
2018-02-02T15:48:30.641Z,2.70
2018-02-02T15:50:58.289Z,2.60
2018-02-02T17:14:54.097Z,3.28
2018-02-02T17:17:21.636Z,2.70
2018-02-02T17:19:49.183Z,4.30
2018-02-02T17:22:16.927Z,2.67
2018-02-02T17:24:44.470Z,4.05
2018-02-02T17:27:12.146Z,2.87
2018-02-02T17:29:39.821Z,3.30
2018-02-02T17:32:07.374Z,3.33
2018-02-02T17:34:34.967Z,3.37
2018-02-02T17:37:02.569Z,5.07
2018-02-02T17:39:30.380Z,4.25
2018-02-02T17:41:58.219Z,3.45
2018-02-02T17:44:25.752Z,3.50
2018-02-02T17:46:53.311Z,4.82
2018-02-02T17:49:21.066Z,2.70
2018-02-02T18:02:51.565Z,3.62
2018-02-02T18:05:19.243Z,3.72
2018-02-02T18:07:47.007Z,4.32
2018-02-02T18:10:14.796Z,4.53
2018-02-02T18:12:42.597Z,3.67
2018-02-02T18:15:10.267Z,3.95
2018-02-02T18:17:37.812Z,4.43
2018-02-02T18:20:05.391Z,5.30
2018-02-02T18:22:33.153Z,4.40
2018-02-02T18:25:00.850Z,5.07
2018-02-02T18:27:28.640Z,3.75
2018-02-02T18:29:56.346Z,4.35
2018-02-02T18:32:24.237Z,3.15
2018-02-02T18:34:52.103Z,3.17
2018-02-02T18:37:20.380Z,4.50
2018-02-02T18:39:48.347Z,3.65
2018-02-02T18:42:16.213Z,3.50
2018-02-02T18:44:43.974Z,4.07
2018-02-02T18:47:12.431Z,3.90
2018-02-02T18:49:40.419Z,4.55
2018-02-02T18:52:08.397Z,4.03
2018-02-02T18:54:35.925Z,4.78
2018-02-02T18:57:03.444Z,3.17
2018-02-02T18:59:31.159Z,4.07
2018-02-02T19:01:58.730Z,4.87
2018-02-02T19:04:26.441Z,4.10
2018-02-02T19:06:53.950Z,3.80
2018-02-02T19:09:21.499Z,4.93
2018-02-02T19:11:49.037Z,3.62
2018-02-02T19:14:16.838Z,3.50
2018-02-02T19:16:44.704Z,5.00
2018-02-02T19:19:12.221Z,4.60
2018-02-02T19:21:40.078Z,3.50
2018-02-02T19:24:07.613Z,3.80
2018-02-02T19:26:35.452Z,3.08
2018-02-02T19:29:03.523Z,3.00
2018-02-02T19:31:31.391Z,3.47
2018-02-02T19:33:59.154Z,3.00
2018-02-02T19:36:26.713Z,4.75
2018-02-02T19:38:54.226Z,3.83
2018-02-02T19:41:22.242Z,2.83
2018-02-02T19:43:50.108Z,4.00
2018-02-02T19:46:17.872Z,4.40
2018-02-02T19:48:45.841Z,5.37
2018-02-02T19:51:13.707Z,5.62
2018-02-02T19:53:41.778Z,4.32
2018-02-02T19:56:09.637Z,3.83
2018-02-02T19:58:37.408Z,4.15
2018-02-02T20:01:05.262Z,4.43
2018-02-02T20:03:33.139Z,2.90
2018-02-02T20:06:01.235Z,3.33
2018-02-02T20:08:29.077Z,4.57
2018-02-02T20:10:57.046Z,5.15
2018-02-02T20:13:24.914Z,3.83
2018-02-02T20:15:52.778Z,3.45
2018-02-02T20:18:20.529Z,3.60
2018-02-02T20:20:48.271Z,2.95
2018-02-02T20:23:16.097Z,3.97
2018-02-02T20:25:44.561Z,4.07
2018-02-02T20:28:12.396Z,3.30
2018-02-02T20:30:40.436Z,3.33
2018-02-02T20:33:08.455Z,4.35
2018-02-02T20:35:36.632Z,4.40
2018-02-02T20:38:04.394Z,4.28
2018-02-02T20:40:33.253Z,3.50
2018-02-02T20:43:01.145Z,4.12
2018-02-02T20:45:28.985Z,3.25
2018-02-02T20:47:56.784Z,4.50
2018-02-02T20:50:24.843Z,4.72
2018-02-02T20:52:52.618Z,4.28
2018-02-02T20:55:20.484Z,4.85
2018-02-02T20:57:49.787Z,4.80
2018-02-02T21:00:19.187Z,4.85
2018-02-02T21:02:47.053Z,4.60
2018-02-02T21:05:14.920Z,5.20
2018-02-02T21:07:43.605Z,5.30
2018-02-02T21:10:12.699Z,4.10
2018-02-02T21:12:40.482Z,4.45
2018-02-02T21:15:09.566Z,3.92
2018-02-02T21:17:37.336Z,4.40
2018-02-02T21:20:05.293Z,4.28
2018-02-02T21:22:33.565Z,4.43
2018-02-02T21:25:01.871Z,5.60
2018-02-02T21:27:29.667Z,4.97
2018-02-02T21:29:57.680Z,5.10
2018-02-02T21:32:25.443Z,4.40
2018-02-02T21:34:53.618Z,5.70
2018-02-02T21:37:21.483Z,5.10
2018-02-02T21:39:49.350Z,4.85
2018-02-02T21:42:18.138Z,5.43
2018-02-02T21:44:46.312Z,5.57
2018-02-02T21:47:14.951Z,5.15
2018-02-02T21:49:42.761Z,5.30
2018-02-02T21:52:10.524Z,5.30
2018-02-02T21:54:39.325Z,5.75
2018-02-02T21:57:07.180Z,5.40
2018-02-02T21:59:35.409Z,5.15
2018-02-02T22:02:03.324Z,6.72
2018-02-02T22:04:31.188Z,6.55
2018-02-02T22:06:58.955Z,5.18
2018-02-02T22:09:26.819Z,5.22
2018-02-02T22:11:54.686Z,6.78
2018-02-02T22:14:22.351Z,6.55
2018-02-02T22:16:50.275Z,6.90
2018-02-02T22:19:17.862Z,6.15
2018-02-02T22:21:45.844Z,5.20
2018-02-02T22:24:13.497Z,6.20
2018-02-02T22:26:41.270Z,7.03
2018-02-02T22:29:09.239Z,6.70
2018-02-02T22:31:37.002Z,6.05
2018-02-02T22:34:04.746Z,6.07
2018-02-02T22:36:32.530Z,5.43
2018-02-02T22:39:00.099Z,5.22
2018-02-02T22:41:27.685Z,5.57
2018-02-02T22:43:55.193Z,5.68
2018-02-02T22:46:23.053Z,6.40
2018-02-02T22:48:50.575Z,6.00
2018-02-02T22:51:18.230Z,4.85
2018-02-02T22:53:45.770Z,6.45
2018-02-02T22:56:13.298Z,6.85
2018-02-02T22:58:41.029Z,5.50
2018-02-02T23:01:08.534Z,5.47
2018-02-02T23:03:36.268Z,6.57
2018-02-02T23:06:03.887Z,6.70
2018-02-02T23:08:31.413Z,6.45
2018-02-02T23:10:58.960Z,7.00
2018-02-02T23:13:26.533Z,6.03
2018-02-02T23:15:54.081Z,6.40
2018-02-02T23:18:22.059Z,5.10
2018-02-02T23:20:49.588Z,4.97
2018-02-02T23:23:17.141Z,5.68
2018-02-02T23:25:44.649Z,7.57
2018-02-02T23:28:12.157Z,5.57
2018-02-02T23:30:39.694Z,6.28
2018-02-02T23:33:07.210Z,5.93
2018-02-02T23:35:34.761Z,6.43
2018-02-02T23:38:02.270Z,5.15
2018-02-02T23:40:29.777Z,5.00
2018-02-02T23:42:57.305Z,5.30
2018-02-02T23:45:24.811Z,5.68
2018-02-02T23:47:52.557Z,4.47
2018-02-02T23:50:20.074Z,5.60
2018-02-02T23:52:47.581Z,4.87
2018-02-02T23:55:15.109Z,3.90
2018-02-02T23:57:42.609Z,4.22
